createdAt,value
2023-10-13T00:00:50.394Z,100842.94
2023-10-13T00:06:17.191Z,100847.56
2023-10-13T00:11:24.156Z,100846.94
2023-10-13T00:16:32.583Z,100855.75
2023-10-13T00:21:40.824Z,100861.19
2023-10-13T00:26:47.280Z,100875.03
2023-10-13T00:31:55.026Z,100870.06
2023-10-13T00:37:19.470Z,100866.84
2023-10-13T00:42:34.849Z,100872.19
2023-10-13T00:47:41.789Z,100876.41
2023-10-13T00:52:52.964Z,100878.22
2023-10-13T00:58:03.927Z,100886.13
2023-10-13T01:03:14.066Z,100887.16
2023-10-13T01:08:39.452Z,100879.38
2023-10-13T01:13:48.717Z,100883.03
2023-10-13T01:19:00.993Z,100881.25
2023-10-13T01:24:10.651Z,100880.50
2023-10-13T01:29:17.368Z,100888.53
2023-10-13T01:34:25.999Z,100878.94
2023-10-13T01:39:33.949Z,100887.84
2023-10-13T01:44:40.233Z,100891.38
2023-10-13T01:49:49.681Z,100880.06
2023-10-13T01:55:02.413Z,100887.06
2023-10-13T02:00:20.479Z,100887.22
2023-10-13T02:05:37.908Z,100882.88
2023-10-13T02:10:46.046Z,100881.22
2023-10-13T02:15:58.210Z,100883.75
2023-10-13T02:21:07.160Z,100883.84
2023-10-13T02:26:16.403Z,100884.78
2023-10-13T02:31:25.840Z,100884.78
2023-10-13T02:36:48.542Z,100886.53
2023-10-13T02:41:57.814Z,100892.66
2023-10-13T02:47:07.479Z,100891.78
2023-10-13T02:52:14.520Z,100882.25
2023-10-13T02:57:24.908Z,100880.50
2023-10-13T03:02:33.446Z,100882.38
2023-10-13T03:07:44.134Z,100887.63
2023-10-13T03:12:52.823Z,100891.09
2023-10-13T03:18:01.235Z,100889.38
2023-10-13T03:23:11.166Z,100888.66
2023-10-13T03:28:23.400Z,100892.16
2023-10-13T03:33:32.543Z,100887.78
2023-10-13T03:38:41.575Z,100891.25
2023-10-13T03:43:53.902Z,100895.63
2023-10-13T03:49:03.693Z,100904.25
2023-10-13T03:54:10.475Z,100909.38
2023-10-13T03:59:21.472Z,100892.94
2023-10-13T04:04:43.787Z,100883.44
2023-10-13T04:10:12.415Z,100888.81
2023-10-13T04:15:24.633Z,100912.38
2023-10-13T04:20:39.825Z,100907.19
2023-10-13T04:26:09.801Z,100893.22
2023-10-13T04:31:42.865Z,100888.91
2023-10-13T04:36:57.367Z,100886.28
2023-10-13T04:42:15.097Z,100892.34
2023-10-13T04:47:24.328Z,100893.22
2023-10-13T04:53:03.188Z,100904.50
2023-10-13T04:58:37.930Z,100909.75
2023-10-13T05:04:10.306Z,100912.34
2023-10-13T05:09:34.784Z,100927.94
2023-10-13T05:14:59.540Z,100920.47
2023-10-13T05:20:23.960Z,100922.25
2023-10-13T05:25:48.134Z,100922.13
2023-10-13T05:31:12.514Z,100930.75
2023-10-13T05:36:37.874Z,100922.31
2023-10-13T05:42:02.245Z,100930.91
2023-10-13T05:47:46.065Z,100959.34
2023-10-13T05:53:11.699Z,100945.63
2023-10-13T05:58:36.387Z,100955.97
2023-10-13T06:04:00.035Z,100958.59
2023-10-13T06:09:28.458Z,100952.56
2023-10-13T06:14:52.273Z,100959.47
2023-10-13T06:20:17.620Z,100950.69
2023-10-13T06:25:44.524Z,100960.13
2023-10-13T06:31:03.000Z,100965.31
2023-10-13T06:36:11.125Z,100964.47
2023-10-13T06:41:32.411Z,100970.44
2023-10-13T06:46:51.545Z,100963.41
2023-10-13T06:52:01.908Z,100971.16
2023-10-13T06:57:15.811Z,100963.31
2023-10-13T07:02:28.479Z,100961.53
2023-10-13T07:07:37.749Z,100955.44
2023-10-13T07:12:45.769Z,100960.56
2023-10-13T07:17:56.715Z,100955.34
2023-10-13T07:23:07.356Z,100960.50
2023-10-13T07:28:17.217Z,100950.03
2023-10-13T07:33:25.458Z,100954.25
2023-10-13T07:38:39.241Z,100941.09
2023-10-13T07:43:47.711Z,100942.69
2023-10-13T07:48:55.647Z,100942.47
2023-10-13T07:54:08.432Z,100933.72
2023-10-13T07:59:17.747Z,100924.81
2023-10-13T08:04:30.968Z,100928.78
2023-10-13T08:09:42.246Z,100913.56
2023-10-13T08:14:50.729Z,100901.06
2023-10-13T08:19:58.374Z,100891.31
2023-10-13T08:25:30.684Z,100894.53
2023-10-13T08:30:53.959Z,100885.78
2023-10-13T08:36:19.336Z,100890.75
2023-10-13T08:41:33.013Z,100889.72
2023-10-13T08:47:05.665Z,100886.19
2023-10-13T08:52:34.557Z,100890.44
2023-10-13T08:57:42.369Z,100889.38
2023-10-13T09:03:22.902Z,100886.56
2023-10-13T09:08:37.216Z,100878.47
2023-10-13T09:13:47.291Z,100870.38
2023-10-13T09:19:06.645Z,100874.59
2023-10-13T09:24:29.060Z,100865.59
2023-10-13T09:29:40.517Z,100859.94
2023-10-13T09:34:52.244Z,100852.72
2023-10-13T09:40:07.102Z,100849.81
2023-10-13T09:45:16.647Z,100836.38
2023-10-13T09:50:27.089Z,100830.66
2023-10-13T09:55:41.786Z,100828.47
2023-10-13T10:00:59.846Z,100819.53
2023-10-13T10:06:17.181Z,100824.41
2023-10-13T10:12:09.715Z,100810.16
2023-10-13T10:17:20.526Z,100801.75
2023-10-13T10:22:37.351Z,100798.72
2023-10-13T10:27:44.718Z,100778.88
2023-10-13T10:33:01.847Z,100771.44
2023-10-13T10:38:25.607Z,100767.81
2023-10-13T10:43:45.447Z,100756.16
2023-10-13T10:49:02.414Z,100749.63
2023-10-13T10:54:20.922Z,100750.09
2023-10-13T10:59:30.665Z,100725.00
2023-10-13T11:04:42.678Z,100712.44
2023-10-13T11:10:06.533Z,100712.97
2023-10-13T11:15:16.540Z,100700.13
2023-10-13T11:20:34.518Z,100699.16
2023-10-13T11:25:46.174Z,100689.94
2023-10-13T11:30:53.037Z,100689.63
2023-10-13T11:36:05.147Z,100685.78
2023-10-13T11:41:16.232Z,100670.97
2023-10-13T11:46:42.058Z,100671.38
2023-10-13T11:51:50.611Z,100660.97
2023-10-13T11:56:59.958Z,100653.06
2023-10-13T12:02:24.394Z,100639.78
2023-10-13T12:07:47.002Z,100637.91
2023-10-13T12:12:56.211Z,100626.22
2023-10-13T12:18:05.172Z,100618.03
2023-10-13T12:23:19.142Z,100606.31
2023-10-13T12:28:30.210Z,100607.69
2023-10-13T12:33:42.179Z,100600.88
2023-10-13T12:39:06.773Z,100592.63
2023-10-13T12:44:32.014Z,100594.38
2023-10-13T12:49:51.094Z,100594.06
2023-10-13T12:55:07.751Z,100591.25
2023-10-13T13:00:25.600Z,100584.06
2023-10-13T13:05:33.132Z,100574.78
2023-10-13T13:10:40.474Z,100561.22
2023-10-13T13:15:49.735Z,100561.69
2023-10-13T13:20:57.378Z,100555.41
2023-10-13T13:26:10.436Z,100554.31
2023-10-13T13:31:18.881Z,100543.56
2023-10-13T13:36:26.203Z,100546.91
2023-10-13T13:41:34.644Z,100540.94
2023-10-13T13:46:44.406Z,100529.25
2023-10-13T13:51:54.164Z,100528.31
2023-10-13T13:57:00.835Z,100521.97
2023-10-13T14:02:21.470Z,100526.81
2023-10-13T14:07:34.516Z,100512.59
2023-10-13T14:12:44.136Z,100505.31
2023-10-13T14:17:52.580Z,100507.88
2023-10-13T14:22:59.531Z,100500.91
2023-10-13T14:28:07.970Z,100500.81
2023-10-13T14:33:16.411Z,100492.00
2023-10-13T14:38:23.410Z,100491.16
2023-10-13T14:43:30.207Z,100481.47
2023-10-13T14:48:40.378Z,100472.63
2023-10-13T14:53:49.326Z,100464.81
2023-10-13T14:58:58.029Z,100438.50
2023-10-13T15:04:06.787Z,100435.22
2023-10-13T15:09:14.772Z,100424.06
2023-10-13T15:14:22.213Z,100427.81
2023-10-13T15:19:37.799Z,100418.31
2023-10-13T15:24:59.447Z,100414.16
2023-10-13T15:30:21.487Z,100400.25
2023-10-13T15:35:30.031Z,100383.84
2023-10-13T15:40:43.686Z,100394.59
2023-10-13T15:45:50.469Z,100381.66
2023-10-13T15:50:59.208Z,100382.66
2023-10-13T15:56:13.104Z,100377.56
2023-10-13T16:01:25.308Z,100383.88
2023-10-13T16:06:34.790Z,100372.66
2023-10-13T16:11:42.238Z,100364.88
2023-10-13T16:16:51.069Z,100368.44
2023-10-13T16:21:59.908Z,100342.19
2023-10-13T16:27:08.038Z,100327.56
2023-10-13T16:32:15.603Z,100309.22
2023-10-13T16:37:23.951Z,100295.44
2023-10-13T16:42:31.086Z,100294.75
2023-10-13T16:47:38.330Z,100292.25
2023-10-13T16:52:48.854Z,100273.94
2023-10-13T16:57:56.053Z,100280.13
2023-10-13T17:03:07.448Z,100275.78
2023-10-13T17:08:17.227Z,100280.34
2023-10-13T17:13:26.840Z,100267.19
2023-10-13T17:18:34.638Z,100264.66
2023-10-13T17:23:44.484Z,100263.63
2023-10-13T17:28:51.916Z,100248.88
2023-10-13T17:33:59.903Z,100242.00
2023-10-13T17:39:11.762Z,100238.56
2023-10-13T17:44:21.470Z,100238.72
2023-10-13T17:49:31.462Z,100238.03
2023-10-13T17:54:40.242Z,100224.19
2023-10-13T17:59:47.622Z,100228.53
2023-10-13T18:04:55.098Z,100237.41
2023-10-13T18:10:06.861Z,100230.38
2023-10-13T18:15:19.601Z,100233.94
2023-10-13T18:20:27.949Z,100240.97
2023-10-13T18:25:46.662Z,100230.59
2023-10-13T18:31:03.238Z,100220.84
2023-10-13T18:36:20.597Z,100219.16
2023-10-13T18:41:32.717Z,100212.06
2023-10-13T18:46:41.641Z,100208.72
2023-10-13T18:51:50.588Z,100195.50
2023-10-13T18:57:01.854Z,100183.28
2023-10-13T19:02:22.252Z,100183.34
2023-10-13T19:07:41.511Z,100180.72
2023-10-13T19:13:28.411Z,100180.72
2023-10-13T19:19:36.560Z,100166.56
2023-10-13T19:25:13.695Z,100165.56
2023-10-13T19:30:34.902Z,100170.16
2023-10-13T19:35:45.016Z,100168.44
2023-10-13T19:41:49.039Z,100167.50
2023-10-13T19:48:03.174Z,100169.28
2023-10-13T19:53:45.538Z,100177.34
2023-10-13T19:59:05.371Z,100174.72
2023-10-13T20:04:22.343Z,100177.47
2023-10-13T20:09:33.809Z,100179.25
2023-10-13T20:14:43.486Z,100175.84
2023-10-13T20:19:53.158Z,100167.22
2023-10-13T20:25:02.356Z,100156.84
2023-10-13T20:30:13.113Z,100143.00
2023-10-13T20:35:25.016Z,100124.66
2023-10-13T20:40:32.286Z,100121.44
2023-10-13T20:45:39.598Z,100105.66
2023-10-13T20:50:49.033Z,100101.16
2023-10-13T20:56:03.513Z,100098.63
2023-10-13T21:01:15.438Z,100083.50
2023-10-13T21:06:24.200Z,100073.75
2023-10-13T21:11:31.328Z,100074.56
2023-10-13T21:16:38.379Z,100073.59
2023-10-13T21:21:47.237Z,100082.16
2023-10-13T21:26:54.318Z,100082.00
2023-10-13T21:32:01.132Z,100072.19
2023-10-13T21:37:13.377Z,100072.94
2023-10-13T21:42:20.731Z,100071.00
2023-10-13T21:47:27.890Z,100061.09
2023-10-13T21:52:37.163Z,100055.84
2023-10-13T21:57:44.322Z,100055.16
2023-10-13T22:02:52.526Z,100045.38
2023-10-13T22:08:02.164Z,100037.44
2023-10-13T22:13:10.124Z,100040.06
2023-10-13T22:18:17.608Z,100026.91
2023-10-13T22:23:26.457Z,100016.31
2023-10-13T22:28:34.045Z,100008.53
2023-10-13T22:33:40.971Z,100002.47
2023-10-13T22:38:55.765Z,100003.50
2023-10-13T22:44:07.166Z,100000.00
2023-10-13T22:49:16.628Z,99989.34
2023-10-13T22:54:30.849Z,99978.06
2023-10-13T22:59:37.946Z,99976.19
2023-10-13T23:04:52.455Z,99977.97
2023-10-13T23:10:02.161Z,99954.16
2023-10-13T23:15:14.473Z,99931.25
2023-10-13T23:20:21.728Z,99940.75
2023-10-13T23:25:29.819Z,99949.41
2023-10-13T23:30:38.491Z,99946.69
2023-10-13T23:35:45.293Z,99951.03
2023-10-13T23:40:54.289Z,99944.81
2023-10-13T23:46:02.181Z,99935.06
2023-10-13T23:51:09.182Z,99923.53
2023-10-13T23:56:30.544Z,99912.16
